createdAt,value
2023-03-16T00:02:25.381Z,3.05
2023-03-16T00:06:28.479Z,3.08
2023-03-16T00:10:32.046Z,3.08
2023-03-16T00:14:35.926Z,3.15
2023-03-16T00:18:46.344Z,3.16
2023-03-16T00:22:49.434Z,3.19
2023-03-16T00:26:54.791Z,3.25
2023-03-16T00:30:59.005Z,3.24
2023-03-16T00:35:05.045Z,3.19
2023-03-16T00:39:08.694Z,3.24
2023-03-16T00:43:11.857Z,3.30
2023-03-16T00:47:15.497Z,3.29
2023-03-16T00:51:20.524Z,3.27
2023-03-16T00:55:23.843Z,3.35
2023-03-16T00:59:27.293Z,3.33
2023-03-16T01:03:30.639Z,3.30
2023-03-16T01:07:36.195Z,3.28
2023-03-16T01:11:39.678Z,3.33
2023-03-16T01:15:42.964Z,3.34
2023-03-16T01:19:47.457Z,3.30
2023-03-16T01:23:53.940Z,3.27
2023-03-16T01:27:57.175Z,3.27
2023-03-16T01:32:00.651Z,3.21
2023-03-16T01:36:06.832Z,3.25
2023-03-16T01:40:20.387Z,3.25
2023-03-16T01:44:30.460Z,3.26
2023-03-16T01:48:42.282Z,3.25
2023-03-16T01:52:45.879Z,3.29
2023-03-16T01:56:58.260Z,3.26
2023-03-16T02:01:01.363Z,3.29
2023-03-16T02:05:09.218Z,3.27
2023-03-16T02:09:13.270Z,3.26
2023-03-16T02:13:17.742Z,3.31
2023-03-16T02:17:23.987Z,3.34
2023-03-16T02:21:36.651Z,3.34
2023-03-16T02:25:48.843Z,3.34
2023-03-16T02:30:01.374Z,3.36
2023-03-16T02:34:10.628Z,3.41
2023-03-16T02:38:14.219Z,3.45
2023-03-16T02:42:27.734Z,3.48
2023-03-16T02:46:36.011Z,3.51
2023-03-16T02:50:47.107Z,3.55
2023-03-16T02:54:50.886Z,3.55
2023-03-16T02:58:54.013Z,3.59
2023-03-16T03:02:59.492Z,3.61
2023-03-16T03:07:05.056Z,3.62
2023-03-16T03:11:19.717Z,3.57
2023-03-16T03:15:22.954Z,3.68
2023-03-16T03:19:37.872Z,3.68
2023-03-16T03:23:40.980Z,3.70
2023-03-16T03:27:45.280Z,3.76
2023-03-16T03:31:51.431Z,3.74
2023-03-16T03:35:57.549Z,3.71
2023-03-16T03:40:04.774Z,3.68
2023-03-16T03:44:07.824Z,3.69
2023-03-16T03:48:12.488Z,3.67
2023-03-16T03:52:17.073Z,3.65
2023-03-16T03:56:20.526Z,3.67
2023-03-16T04:00:23.914Z,3.70
2023-03-16T04:04:27.627Z,3.68
2023-03-16T04:08:32.144Z,3.67
2023-03-16T04:12:35.786Z,3.67
2023-03-16T04:16:39.330Z,3.70
2023-03-16T04:20:42.915Z,3.77
2023-03-16T04:24:52.365Z,3.79
2023-03-16T04:28:56.566Z,3.82
2023-03-16T04:32:59.831Z,3.85
2023-03-16T04:37:03.403Z,3.82
2023-03-16T04:41:11.430Z,3.86
2023-03-16T04:45:21.141Z,3.89
2023-03-16T04:49:27.657Z,3.89
2023-03-16T04:53:31.916Z,3.93
2023-03-16T04:57:40.582Z,3.96
2023-03-16T05:01:44.657Z,3.94
2023-03-16T05:05:51.038Z,3.92
2023-03-16T05:09:54.898Z,3.91
2023-03-16T05:13:59.913Z,3.91
2023-03-16T05:18:03.304Z,3.87
2023-03-16T05:22:07.345Z,3.84
2023-03-16T05:26:11.375Z,3.82
2023-03-16T05:30:17.492Z,3.80
2023-03-16T05:34:21.566Z,3.78
2023-03-16T05:38:25.096Z,3.80
2023-03-16T05:42:29.984Z,3.82
2023-03-16T05:46:39.022Z,3.81
2023-03-16T05:50:43.500Z,3.87
2023-03-16T05:54:48.310Z,3.93
2023-03-16T05:58:51.992Z,3.94
2023-03-16T06:02:56.724Z,4.00
2023-03-16T06:07:04.664Z,3.98
2023-03-16T06:11:08.969Z,4.03
2023-03-16T06:15:13.634Z,4.01
2023-03-16T06:19:18.528Z,4.03
2023-03-16T06:23:25.745Z,4.09
2023-03-16T06:27:30.759Z,4.11
2023-03-16T06:31:43.634Z,4.13
2023-03-16T06:35:49.995Z,4.20
2023-03-16T06:40:00.663Z,4.21
2023-03-16T06:44:06.317Z,4.32
2023-03-16T06:48:13.160Z,4.34
2023-03-16T06:52:17.941Z,4.38
2023-03-16T06:56:21.754Z,4.48
2023-03-16T07:00:27.033Z,4.59
2023-03-16T07:04:30.461Z,4.71
2023-03-16T07:08:36.399Z,4.79
2023-03-16T07:12:39.676Z,4.91
2023-03-16T07:16:43.326Z,4.98
2023-03-16T07:20:47.000Z,5.09
2023-03-16T07:24:57.403Z,5.13
2023-03-16T07:29:04.829Z,5.24
2023-03-16T07:33:08.186Z,5.28
2023-03-16T07:37:12.100Z,5.27
2023-03-16T07:41:17.123Z,5.46
2023-03-16T07:45:21.624Z,5.53
2023-03-16T07:49:24.898Z,5.62
2023-03-16T07:53:30.384Z,5.71
2023-03-16T07:57:53.212Z,5.74
2023-03-16T08:02:03.969Z,5.65
2023-03-16T08:06:08.149Z,5.78
2023-03-16T08:10:13.111Z,5.82
2023-03-16T08:14:34.502Z,5.88
2023-03-16T08:18:45.959Z,5.91
2023-03-16T08:22:50.844Z,6.00
2023-03-16T08:26:59.762Z,6.07
2023-03-16T08:31:08.829Z,6.12
2023-03-16T08:35:19.544Z,6.17
2023-03-16T08:39:24.349Z,6.26
2023-03-16T08:43:27.912Z,6.33
2023-03-16T08:47:32.889Z,6.29
2023-03-16T08:51:37.193Z,6.27
2023-03-16T08:55:41.644Z,6.57
2023-03-16T08:59:45.066Z,6.70
2023-03-16T09:03:51.447Z,6.96
2023-03-16T09:07:54.929Z,7.00
2023-03-16T09:11:59.052Z,7.07
2023-03-16T09:16:03.125Z,7.12
2023-03-16T09:20:21.969Z,7.05
2023-03-16T09:24:29.567Z,7.23
2023-03-16T09:28:32.952Z,7.23
2023-03-16T09:32:37.520Z,7.28
2023-03-16T09:36:42.219Z,7.44
2023-03-16T09:40:48.350Z,7.68
2023-03-16T09:45:06.390Z,7.52
2023-03-16T09:49:16.738Z,7.82
2023-03-16T09:53:26.767Z,8.33
2023-03-16T09:57:34.858Z,8.97
2023-03-16T10:01:45.717Z,8.95
2023-03-16T10:05:50.811Z,8.75
2023-03-16T10:09:59.049Z,8.88
2023-03-16T10:14:11.273Z,8.74
2023-03-16T10:18:19.321Z,9.28
2023-03-16T10:22:27.667Z,9.33
2023-03-16T10:26:39.417Z,9.67
2023-03-16T10:30:43.600Z,9.93
2023-03-16T10:34:54.175Z,11.05
2023-03-16T10:38:59.765Z,11.51
2023-03-16T10:43:09.410Z,11.19
2023-03-16T10:47:19.594Z,11.95
2023-03-16T10:51:26.478Z,10.82
2023-03-16T10:55:35.176Z,11.85
2023-03-16T10:59:40.352Z,12.53
2023-03-16T11:03:43.560Z,12.07
2023-03-16T11:07:51.714Z,11.70
2023-03-16T11:11:55.852Z,12.25
2023-03-16T11:16:05.391Z,12.56
2023-03-16T11:20:17.878Z,13.41
2023-03-16T11:24:27.125Z,13.17
2023-03-16T11:28:37.723Z,12.60
2023-03-16T11:32:47.139Z,13.00
2023-03-16T11:36:56.184Z,12.85
2023-03-16T11:41:02.929Z,13.61
2023-03-16T11:45:18.521Z,14.02
2023-03-16T11:49:49.205Z,12.78
2023-03-16T11:54:02.025Z,12.57
2023-03-16T11:58:20.029Z,12.65
2023-03-16T12:02:39.792Z,12.74
2023-03-16T12:06:57.658Z,12.79
2023-03-16T12:11:04.773Z,12.69
2023-03-16T12:15:22.552Z,12.43
2023-03-16T12:19:43.724Z,12.35
2023-03-16T12:23:53.581Z,12.44
2023-03-16T12:28:00.466Z,12.34
2023-03-16T12:32:15.438Z,12.64
2023-03-16T12:37:03.533Z,12.55
2023-03-16T12:41:18.140Z,12.47
2023-03-16T12:45:31.986Z,12.89
2023-03-16T12:49:37.252Z,12.97
2023-03-16T12:53:44.511Z,12.93
2023-03-16T12:57:52.642Z,13.13
2023-03-16T13:02:00.983Z,13.17
2023-03-16T13:06:04.668Z,13.81
2023-03-16T13:10:14.156Z,14.25
2023-03-16T13:14:35.595Z,14.53
2023-03-16T13:18:44.853Z,14.43
2023-03-16T13:22:51.596Z,15.03
2023-03-16T13:26:59.209Z,14.77
2023-03-16T13:31:04.969Z,15.16
2023-03-16T13:35:15.825Z,14.49
2023-03-16T13:39:20.946Z,14.50
2023-03-16T13:43:28.786Z,14.53
2023-03-16T13:47:33.371Z,14.70
2023-03-16T13:51:40.179Z,15.38
2023-03-16T13:55:46.898Z,14.82
2023-03-16T13:59:50.635Z,14.64
2023-03-16T14:03:58.429Z,14.20
2023-03-16T14:08:02.300Z,14.95
2023-03-16T14:12:06.404Z,14.66
2023-03-16T14:16:16.662Z,14.96
2023-03-16T14:20:25.654Z,15.45
2023-03-16T14:24:32.341Z,15.08
2023-03-16T14:28:35.966Z,15.45
2023-03-16T14:32:40.110Z,15.28
2023-03-16T14:36:44.752Z,15.60
2023-03-16T14:40:54.937Z,15.90
2023-03-16T14:45:00.093Z,15.41
2023-03-16T14:49:07.882Z,15.36
2023-03-16T14:53:12.478Z,15.61
2023-03-16T14:57:19.180Z,15.41
2023-03-16T15:01:25.127Z,15.26
2023-03-16T15:05:36.280Z,15.27
2023-03-16T15:09:44.214Z,16.08
2023-03-16T15:14:04.394Z,15.97
2023-03-16T15:18:07.822Z,15.55
2023-03-16T15:22:13.335Z,15.54
2023-03-16T15:26:25.090Z,15.00
2023-03-16T15:30:31.027Z,15.11
2023-03-16T15:34:34.462Z,14.91
2023-03-16T15:38:40.908Z,14.14
2023-03-16T15:42:46.948Z,13.89
2023-03-16T15:46:50.728Z,13.65
2023-03-16T15:50:55.976Z,13.72
2023-03-16T15:55:04.562Z,13.55
2023-03-16T15:59:17.286Z,13.32
2023-03-16T16:03:20.553Z,13.16
2023-03-16T16:07:24.157Z,12.98
2023-03-16T16:11:29.376Z,13.08
2023-03-16T16:15:37.038Z,13.09
2023-03-16T16:19:40.800Z,13.05
2023-03-16T16:23:44.102Z,13.01
2023-03-16T16:27:48.076Z,13.03
2023-03-16T16:31:53.754Z,13.16
2023-03-16T16:35:58.559Z,13.24
2023-03-16T16:40:02.034Z,13.12
2023-03-16T16:44:08.467Z,13.29
2023-03-16T16:48:35.154Z,13.76
2023-03-16T16:52:38.381Z,13.47
2023-03-16T16:56:42.906Z,12.97
2023-03-16T17:00:52.883Z,12.78
2023-03-16T17:04:58.044Z,12.86
2023-03-16T17:09:01.121Z,12.73
2023-03-16T17:13:05.630Z,12.57
2023-03-16T17:17:15.096Z,12.28
2023-03-16T17:21:23.815Z,12.06
2023-03-16T17:25:28.594Z,11.91
2023-03-16T17:29:33.634Z,11.77
2023-03-16T17:33:38.502Z,11.63
2023-03-16T17:37:43.171Z,11.45
2023-03-16T17:41:47.643Z,11.44
2023-03-16T17:45:52.821Z,11.31
2023-03-16T17:49:57.245Z,11.23
2023-03-16T17:54:03.058Z,11.21
2023-03-16T17:58:07.522Z,11.09
2023-03-16T18:02:33.642Z,10.98
2023-03-16T18:06:36.818Z,10.86
2023-03-16T18:10:41.843Z,10.77
2023-03-16T18:14:45.028Z,10.56
2023-03-16T18:18:48.653Z,10.43
2023-03-16T18:22:51.876Z,10.26
2023-03-16T18:26:56.520Z,10.21
2023-03-16T18:31:01.549Z,10.21
2023-03-16T18:35:05.416Z,10.16
2023-03-16T18:39:16.253Z,10.10
2023-03-16T18:43:20.875Z,10.01
2023-03-16T18:47:31.549Z,10.11
2023-03-16T18:51:35.394Z,10.12
2023-03-16T18:55:45.149Z,9.97
2023-03-16T18:59:51.754Z,9.96
2023-03-16T19:03:56.116Z,9.86
2023-03-16T19:07:59.259Z,9.81
2023-03-16T19:12:03.687Z,9.72
2023-03-16T19:16:17.705Z,9.68
2023-03-16T19:20:23.668Z,9.62
2023-03-16T19:24:29.832Z,9.52
2023-03-16T19:28:36.796Z,9.44
2023-03-16T19:32:41.543Z,9.38
2023-03-16T19:36:45.192Z,9.22
2023-03-16T19:40:51.192Z,9.25
2023-03-16T19:44:55.402Z,9.25
2023-03-16T19:49:01.253Z,9.20
2023-03-16T19:53:14.912Z,9.17
2023-03-16T19:57:21.119Z,9.14
2023-03-16T20:01:31.093Z,9.12
2023-03-16T20:05:38.775Z,8.98
2023-03-16T20:09:41.980Z,9.03
2023-03-16T20:13:45.950Z,9.01
2023-03-16T20:17:51.302Z,9.01
2023-03-16T20:21:55.842Z,9.00
2023-03-16T20:26:02.709Z,8.94
2023-03-16T20:30:15.933Z,8.91
2023-03-16T20:34:23.662Z,8.94
2023-03-16T20:38:29.621Z,8.94
2023-03-16T20:42:35.147Z,8.94
2023-03-16T20:46:41.333Z,8.92
2023-03-16T20:50:45.146Z,8.89
2023-03-16T20:54:49.886Z,8.92
2023-03-16T20:58:56.079Z,8.90
2023-03-16T21:02:59.915Z,8.93
2023-03-16T21:07:03.173Z,8.93
2023-03-16T21:11:21.038Z,8.95
2023-03-16T21:15:26.742Z,8.98
2023-03-16T21:19:30.007Z,8.83
2023-03-16T21:23:33.839Z,8.93
2023-03-16T21:27:39.716Z,8.91
2023-03-16T21:31:43.159Z,8.89
2023-03-16T21:35:46.614Z,8.84
2023-03-16T21:39:50.530Z,8.91
2023-03-16T21:43:56.041Z,8.88
2023-03-16T21:47:59.776Z,8.83
2023-03-16T21:52:02.934Z,8.83
2023-03-16T21:56:06.679Z,8.88
2023-03-16T22:00:17.234Z,8.82
2023-03-16T22:04:20.924Z,8.79
2023-03-16T22:08:27.090Z,8.85
2023-03-16T22:12:30.295Z,8.88
2023-03-16T22:16:37.240Z,8.89
2023-03-16T22:20:40.607Z,8.87
2023-03-16T22:24:44.213Z,8.91
2023-03-16T22:28:48.364Z,8.85
2023-03-16T22:32:55.916Z,8.88
2023-03-16T22:37:00.566Z,8.79
2023-03-16T22:41:03.801Z,8.86
2023-03-16T22:45:16.988Z,8.88
2023-03-16T22:49:25.827Z,8.80
2023-03-16T22:53:35.579Z,8.86
2023-03-16T22:57:38.792Z,8.90
2023-03-16T23:01:44.328Z,8.91
2023-03-16T23:05:50.340Z,8.87
2023-03-16T23:09:53.428Z,8.89
2023-03-16T23:13:56.990Z,8.86
2023-03-16T23:17:59.974Z,8.84
2023-03-16T23:22:06.917Z,8.85
2023-03-16T23:26:17.588Z,8.80
2023-03-16T23:30:24.590Z,8.80
2023-03-16T23:34:27.656Z,8.80
2023-03-16T23:38:32.487Z,8.70
2023-03-16T23:42:35.796Z,8.70
2023-03-16T23:46:39.113Z,8.60
2023-03-16T23:50:42.819Z,8.51
2023-03-16T23:54:49.577Z,8.39
2023-03-16T23:58:52.619Z,8.37
